sensor_id;sensor_type;location;lat;lon;timestamp;P1;durP1;ratioP1;P2;durP2;ratioP2
61397;SDS011;47267;48.130;-2.040;2023-10-31T00:01:02;4.38;;;2.13;;
61397;SDS011;47267;48.130;-2.040;2023-10-31T00:03:28;3.05;;;1.50;;
61397;SDS011;47267;48.130;-2.040;2023-10-31T00:05:54;3.13;;;1.90;;
61397;SDS011;47267;48.130;-2.040;2023-10-31T00:08:19;3.90;;;1.80;;
61397;SDS011;47267;48.130;-2.040;2023-10-31T00:10:46;3.03;;;1.80;;
61397;SDS011;47267;48.130;-2.040;2023-10-31T00:13:11;3.80;;;2.00;;
61397;SDS011;47267;48.130;-2.040;2023-10-31T00:15:37;4.07;;;2.10;;
61397;SDS011;47267;48.130;-2.040;2023-10-31T00:18:03;3.10;;;1.83;;
61397;SDS011;47267;48.130;-2.040;2023-10-31T00:20:28;3.10;;;1.83;;
61397;SDS011;47267;48.130;-2.040;2023-10-31T00:22:54;4.20;;;1.90;;
61397;SDS011;47267;48.130;-2.040;2023-10-31T00:25:20;4.70;;;1.80;;
61397;SDS011;47267;48.130;-2.040;2023-10-31T00:27:46;3.50;;;1.90;;
61397;SDS011;47267;48.130;-2.040;2023-10-31T00:30:11;3.08;;;1.70;;
61397;SDS011;47267;48.130;-2.040;2023-10-31T00:32:37;4.20;;;1.90;;
61397;SDS011;47267;48.130;-2.040;2023-10-31T00:35:03;2.92;;;1.70;;
61397;SDS011;47267;48.130;-2.040;2023-10-31T00:37:28;3.53;;;2.00;;
61397;SDS011;47267;48.130;-2.040;2023-10-31T00:39:54;3.50;;;1.70;;
61397;SDS011;47267;48.130;-2.040;2023-10-31T00:42:20;4.28;;;1.85;;
61397;SDS011;47267;48.130;-2.040;2023-10-31T00:44:46;3.28;;;1.92;;
61397;SDS011;47267;48.130;-2.040;2023-10-31T00:47:12;2.50;;;1.38;;
61397;SDS011;47267;48.130;-2.040;2023-10-31T00:49:37;3.08;;;1.70;;
61397;SDS011;47267;48.130;-2.040;2023-10-31T00:52:03;2.67;;;1.42;;
61397;SDS011;47267;48.130;-2.040;2023-10-31T00:54:29;3.55;;;1.30;;
61397;SDS011;47267;48.130;-2.040;2023-10-31T00:56:55;3.25;;;1.58;;
61397;SDS011;47267;48.130;-2.040;2023-10-31T00:59:20;3.65;;;1.55;;
61397;SDS011;47267;48.130;-2.040;2023-10-31T01:01:46;2.97;;;1.60;;
61397;SDS011;47267;48.130;-2.040;2023-10-31T01:04:11;3.70;;;1.55;;
61397;SDS011;47267;48.130;-2.040;2023-10-31T01:06:43;3.28;;;1.45;;
61397;SDS011;47267;48.130;-2.040;2023-10-31T01:09:09;3.13;;;1.60;;
61397;SDS011;47267;48.130;-2.040;2023-10-31T01:11:35;2.63;;;1.60;;
61397;SDS011;47267;48.130;-2.040;2023-10-31T01:14:01;4.10;;;1.55;;
61397;SDS011;47267;48.130;-2.040;2023-10-31T01:16:26;3.50;;;1.55;;
61397;SDS011;47267;48.130;-2.040;2023-10-31T01:18:52;2.15;;;1.42;;
61397;SDS011;47267;48.130;-2.040;2023-10-31T01:21:18;3.88;;;1.35;;
61397;SDS011;47267;48.130;-2.040;2023-10-31T01:23:44;2.70;;;1.55;;
61397;SDS011;47267;48.130;-2.040;2023-10-31T01:26:09;2.92;;;1.50;;
61397;SDS011;47267;48.130;-2.040;2023-10-31T01:28:35;3.05;;;1.42;;
61397;SDS011;47267;48.130;-2.040;2023-10-31T01:31:01;3.30;;;1.50;;
61397;SDS011;47267;48.130;-2.040;2023-10-31T01:33:26;2.90;;;1.55;;
61397;SDS011;47267;48.130;-2.040;2023-10-31T01:35:52;2.70;;;1.50;;
61397;SDS011;47267;48.130;-2.040;2023-10-31T01:38:18;3.00;;;1.55;;
61397;SDS011;47267;48.130;-2.040;2023-10-31T01:40:43;3.65;;;1.35;;
61397;SDS011;47267;48.130;-2.040;2023-10-31T01:43:10;2.65;;;1.40;;
61397;SDS011;47267;48.130;-2.040;2023-10-31T01:45:36;2.90;;;1.58;;
61397;SDS011;47267;48.130;-2.040;2023-10-31T01:48:01;3.20;;;1.40;;
61397;SDS011;47267;48.130;-2.040;2023-10-31T01:50:28;2.78;;;1.33;;
61397;SDS011;47267;48.130;-2.040;2023-10-31T01:52:53;2.63;;;1.48;;
61397;SDS011;47267;48.130;-2.040;2023-10-31T01:55:19;4.03;;;1.52;;
61397;SDS011;47267;48.130;-2.040;2023-10-31T01:57:47;1.63;;;1.20;;
61397;SDS011;47267;48.130;-2.040;2023-10-31T02:00:14;3.08;;;1.40;;
61397;SDS011;47267;48.130;-2.040;2023-10-31T02:02:40;2.40;;;1.27;;
61397;SDS011;47267;48.130;-2.040;2023-10-31T02:05:09;2.30;;;1.30;;
61397;SDS011;47267;48.130;-2.040;2023-10-31T02:07:34;2.50;;;1.33;;
61397;SDS011;47267;48.130;-2.040;2023-10-31T02:10:00;4.25;;;1.30;;
61397;SDS011;47267;48.130;-2.040;2023-10-31T02:12:35;1.90;;;1.25;;
61397;SDS011;47267;48.130;-2.040;2023-10-31T02:15:01;2.45;;;1.10;;
61397;SDS011;47267;48.130;-2.040;2023-10-31T02:17:28;2.03;;;1.17;;
61397;SDS011;47267;48.130;-2.040;2023-10-31T02:19:54;1.83;;;1.10;;
61397;SDS011;47267;48.130;-2.040;2023-10-31T02:22:20;2.47;;;1.10;;
61397;SDS011;47267;48.130;-2.040;2023-10-31T02:24:46;1.95;;;1.02;;
61397;SDS011;47267;48.130;-2.040;2023-10-31T02:27:12;2.92;;;1.38;;
61397;SDS011;47267;48.130;-2.040;2023-10-31T02:29:39;1.88;;;0.98;;
61397;SDS011;47267;48.130;-2.040;2023-10-31T02:32:05;1.88;;;1.10;;
61397;SDS011;47267;48.130;-2.040;2023-10-31T02:34:30;2.03;;;1.13;;
61397;SDS011;47267;48.130;-2.040;2023-10-31T02:36:56;2.83;;;1.20;;
61397;SDS011;47267;48.130;-2.040;2023-10-31T02:39:22;2.10;;;0.98;;
61397;SDS011;47267;48.130;-2.040;2023-10-31T02:41:47;1.70;;;0.95;;
61397;SDS011;47267;48.130;-2.040;2023-10-31T02:44:14;2.35;;;1.20;;
61397;SDS011;47267;48.130;-2.040;2023-10-31T02:46:40;2.33;;;1.10;;
61397;SDS011;47267;48.130;-2.040;2023-10-31T02:49:06;1.92;;;1.08;;
61397;SDS011;47267;48.130;-2.040;2023-10-31T02:51:34;1.83;;;1.02;;
61397;SDS011;47267;48.130;-2.040;2023-10-31T02:53:59;2.70;;;1.13;;
61397;SDS011;47267;48.130;-2.040;2023-10-31T02:56:25;2.05;;;1.00;;
61397;SDS011;47267;48.130;-2.040;2023-10-31T02:58:50;2.03;;;1.05;;
61397;SDS011;47267;48.130;-2.040;2023-10-31T03:01:16;2.45;;;1.10;;
61397;SDS011;47267;48.130;-2.040;2023-10-31T03:03:44;1.95;;;1.10;;
61397;SDS011;47267;48.130;-2.040;2023-10-31T03:06:10;1.90;;;1.10;;
61397;SDS011;47267;48.130;-2.040;2023-10-31T03:08:36;1.92;;;1.00;;
61397;SDS011;47267;48.130;-2.040;2023-10-31T03:11:02;1.98;;;1.10;;
61397;SDS011;47267;48.130;-2.040;2023-10-31T03:13:27;2.10;;;0.98;;
61397;SDS011;47267;48.130;-2.040;2023-10-31T03:15:53;2.35;;;1.10;;
61397;SDS011;47267;48.130;-2.040;2023-10-31T03:18:19;1.48;;;0.90;;
61397;SDS011;47267;48.130;-2.040;2023-10-31T03:20:44;1.60;;;1.00;;
61397;SDS011;47267;48.130;-2.040;2023-10-31T03:23:11;1.75;;;1.10;;
61397;SDS011;47267;48.130;-2.040;2023-10-31T03:25:37;1.92;;;0.90;;
61397;SDS011;47267;48.130;-2.040;2023-10-31T03:28:03;2.13;;;1.13;;
61397;SDS011;47267;48.130;-2.040;2023-10-31T03:30:29;1.45;;;0.80;;
61397;SDS011;47267;48.130;-2.040;2023-10-31T03:32:55;1.48;;;0.90;;
61397;SDS011;47267;48.130;-2.040;2023-10-31T03:35:21;1.83;;;0.88;;
61397;SDS011;47267;48.130;-2.040;2023-10-31T03:37:46;2.15;;;1.10;;
61397;SDS011;47267;48.130;-2.040;2023-10-31T03:40:12;1.90;;;1.00;;
61397;SDS011;47267;48.130;-2.040;2023-10-31T03:42:38;2.35;;;1.10;;
61397;SDS011;47267;48.130;-2.040;2023-10-31T03:45:04;1.73;;;0.80;;
61397;SDS011;47267;48.130;-2.040;2023-10-31T03:47:30;3.00;;;1.00;;
61397;SDS011;47267;48.130;-2.040;2023-10-31T03:49:56;1.83;;;1.08;;
61397;SDS011;47267;48.130;-2.040;2023-10-31T03:52:22;5.53;;;1.13;;
61397;SDS011;47267;48.130;-2.040;2023-10-31T03:54:47;1.58;;;0.95;;
61397;SDS011;47267;48.130;-2.040;2023-10-31T03:57:13;1.63;;;1.10;;
61397;SDS011;47267;48.130;-2.040;2023-10-31T03:59:39;3.17;;;0.93;;
61397;SDS011;47267;48.130;-2.040;2023-10-31T04:02:04;1.83;;;0.95;;
61397;SDS011;47267;48.130;-2.040;2023-10-31T04:04:30;1.17;;;0.75;;
61397;SDS011;47267;48.130;-2.040;2023-10-31T04:06:56;1.67;;;1.00;;
61397;SDS011;47267;48.130;-2.040;2023-10-31T04:09:21;2.30;;;1.10;;
61397;SDS011;47267;48.130;-2.040;2023-10-31T04:11:47;1.88;;;1.00;;
61397;SDS011;47267;48.130;-2.040;2023-10-31T04:14:13;2.08;;;1.10;;
61397;SDS011;47267;48.130;-2.040;2023-10-31T04:16:42;1.40;;;0.90;;
61397;SDS011;47267;48.130;-2.040;2023-10-31T04:19:11;1.38;;;0.73;;
61397;SDS011;47267;48.130;-2.040;2023-10-31T04:21:38;1.80;;;0.82;;
61397;SDS011;47267;48.130;-2.040;2023-10-31T04:24:04;1.50;;;0.80;;
61397;SDS011;47267;48.130;-2.040;2023-10-31T04:26:30;1.40;;;0.80;;
61397;SDS011;47267;48.130;-2.040;2023-10-31T04:28:55;1.63;;;0.95;;
61397;SDS011;47267;48.130;-2.040;2023-10-31T04:31:21;1.80;;;0.90;;
61397;SDS011;47267;48.130;-2.040;2023-10-31T04:33:47;1.75;;;0.80;;
61397;SDS011;47267;48.130;-2.040;2023-10-31T04:36:13;3.17;;;0.95;;
61397;SDS011;47267;48.130;-2.040;2023-10-31T04:38:38;1.98;;;0.90;;
61397;SDS011;47267;48.130;-2.040;2023-10-31T04:41:05;1.85;;;0.75;;
61397;SDS011;47267;48.130;-2.040;2023-10-31T04:43:34;1.45;;;0.82;;
61397;SDS011;47267;48.130;-2.040;2023-10-31T04:46:00;1.55;;;0.80;;
61397;SDS011;47267;48.130;-2.040;2023-10-31T04:48:26;2.22;;;0.80;;
61397;SDS011;47267;48.130;-2.040;2023-10-31T04:50:51;2.00;;;0.90;;
61397;SDS011;47267;48.130;-2.040;2023-10-31T04:53:17;1.20;;;0.70;;
61397;SDS011;47267;48.130;-2.040;2023-10-31T04:55:43;1.75;;;0.90;;
61397;SDS011;47267;48.130;-2.040;2023-10-31T04:58:08;2.05;;;1.02;;
61397;SDS011;47267;48.130;-2.040;2023-10-31T05:00:34;2.40;;;1.02;;
61397;SDS011;47267;48.130;-2.040;2023-10-31T05:03:00;1.55;;;0.70;;
61397;SDS011;47267;48.130;-2.040;2023-10-31T05:05:27;2.00;;;0.98;;
61397;SDS011;47267;48.130;-2.040;2023-10-31T05:07:53;1.77;;;0.70;;
61397;SDS011;47267;48.130;-2.040;2023-10-31T05:10:19;1.10;;;0.70;;
61397;SDS011;47267;48.130;-2.040;2023-10-31T05:12:45;1.30;;;0.70;;
61397;SDS011;47267;48.130;-2.040;2023-10-31T05:15:10;1.40;;;0.63;;
61397;SDS011;47267;48.130;-2.040;2023-10-31T05:17:36;1.60;;;0.75;;
61397;SDS011;47267;48.130;-2.040;2023-10-31T05:20:01;1.58;;;0.70;;
61397;SDS011;47267;48.130;-2.040;2023-10-31T05:22:27;1.55;;;0.70;;
61397;SDS011;47267;48.130;-2.040;2023-10-31T05:24:53;1.55;;;0.82;;
61397;SDS011;47267;48.130;-2.040;2023-10-31T05:27:19;1.88;;;0.80;;
61397;SDS011;47267;48.130;-2.040;2023-10-31T05:29:44;1.00;;;0.55;;
61397;SDS011;47267;48.130;-2.040;2023-10-31T05:32:10;1.20;;;0.70;;
61397;SDS011;47267;48.130;-2.040;2023-10-31T05:34:36;1.50;;;0.70;;
61397;SDS011;47267;48.130;-2.040;2023-10-31T05:37:02;1.33;;;0.70;;
61397;SDS011;47267;48.130;-2.040;2023-10-31T05:39:30;1.58;;;0.77;;
61397;SDS011;47267;48.130;-2.040;2023-10-31T05:41:56;1.10;;;0.70;;
61397;SDS011;47267;48.130;-2.040;2023-10-31T05:44:22;1.05;;;0.65;;
61397;SDS011;47267;48.130;-2.040;2023-10-31T05:46:47;1.08;;;0.60;;
61397;SDS011;47267;48.130;-2.040;2023-10-31T05:49:14;0.65;;;0.40;;
61397;SDS011;47267;48.130;-2.040;2023-10-31T05:51:40;1.00;;;0.52;;
61397;SDS011;47267;48.130;-2.040;2023-10-31T05:54:08;0.98;;;0.50;;
61397;SDS011;47267;48.130;-2.040;2023-10-31T05:56:34;1.85;;;0.70;;
61397;SDS011;47267;48.130;-2.040;2023-10-31T05:59:00;1.40;;;0.57;;
61397;SDS011;47267;48.130;-2.040;2023-10-31T06:01:25;0.90;;;0.50;;
61397;SDS011;47267;48.130;-2.040;2023-10-31T06:03:51;0.82;;;0.60;;
61397;SDS011;47267;48.130;-2.040;2023-10-31T06:06:16;1.55;;;0.70;;
61397;SDS011;47267;48.130;-2.040;2023-10-31T06:08:42;1.45;;;0.68;;
61397;SDS011;47267;48.130;-2.040;2023-10-31T06:11:08;1.23;;;0.70;;
61397;SDS011;47267;48.130;-2.040;2023-10-31T06:13:37;1.10;;;0.63;;
61397;SDS011;47267;48.130;-2.040;2023-10-31T06:16:02;1.50;;;0.80;;
61397;SDS011;47267;48.130;-2.040;2023-10-31T06:18:28;1.02;;;0.60;;
61397;SDS011;47267;48.130;-2.040;2023-10-31T06:20:54;1.75;;;0.65;;
61397;SDS011;47267;48.130;-2.040;2023-10-31T06:23:20;0.75;;;0.50;;
61397;SDS011;47267;48.130;-2.040;2023-10-31T06:25:46;1.00;;;0.50;;
61397;SDS011;47267;48.130;-2.040;2023-10-31T06:28:12;1.10;;;0.65;;
61397;SDS011;47267;48.130;-2.040;2023-10-31T06:30:38;1.23;;;0.70;;
61397;SDS011;47267;48.130;-2.040;2023-10-31T06:33:04;1.60;;;0.70;;
61397;SDS011;47267;48.130;-2.040;2023-10-31T06:35:29;1.35;;;0.60;;
61397;SDS011;47267;48.130;-2.040;2023-10-31T06:37:55;2.10;;;0.70;;
61397;SDS011;47267;48.130;-2.040;2023-10-31T06:40:25;1.45;;;0.80;;
61397;SDS011;47267;48.130;-2.040;2023-10-31T06:42:51;0.80;;;0.50;;
61397;SDS011;47267;48.130;-2.040;2023-10-31T06:45:16;0.55;;;0.45;;
61397;SDS011;47267;48.130;-2.040;2023-10-31T06:47:42;1.20;;;0.52;;
61397;SDS011;47267;48.130;-2.040;2023-10-31T06:50:08;0.90;;;0.50;;
61397;SDS011;47267;48.130;-2.040;2023-10-31T06:52:34;1.25;;;0.70;;
61397;SDS011;47267;48.130;-2.040;2023-10-31T06:55:00;2.22;;;0.52;;
61397;SDS011;47267;48.130;-2.040;2023-10-31T06:57:25;1.00;;;0.55;;
61397;SDS011;47267;48.130;-2.040;2023-10-31T06:59:51;1.08;;;0.60;;
61397;SDS011;47267;48.130;-2.040;2023-10-31T07:02:17;1.02;;;0.50;;
61397;SDS011;47267;48.130;-2.040;2023-10-31T07:04:43;1.15;;;0.43;;
61397;SDS011;47267;48.130;-2.040;2023-10-31T07:07:09;1.55;;;0.60;;
61397;SDS011;47267;48.130;-2.040;2023-10-31T07:09:35;2.13;;;0.55;;
61397;SDS011;47267;48.130;-2.040;2023-10-31T07:12:00;1.15;;;0.70;;
61397;SDS011;47267;48.130;-2.040;2023-10-31T07:14:26;1.00;;;0.47;;
61397;SDS011;47267;48.130;-2.040;2023-10-31T07:16:51;1.20;;;0.60;;
61397;SDS011;47267;48.130;-2.040;2023-10-31T07:19:17;1.40;;;0.50;;
61397;SDS011;47267;48.130;-2.040;2023-10-31T07:21:43;1.52;;;0.50;;
61397;SDS011;47267;48.130;-2.040;2023-10-31T07:24:09;1.17;;;0.40;;
61397;SDS011;47267;48.130;-2.040;2023-10-31T07:26:35;0.98;;;0.57;;
61397;SDS011;47267;48.130;-2.040;2023-10-31T07:29:00;1.58;;;0.50;;
61397;SDS011;47267;48.130;-2.040;2023-10-31T07:31:26;1.63;;;0.60;;
61397;SDS011;47267;48.130;-2.040;2023-10-31T07:33:52;1.73;;;0.80;;
61397;SDS011;47267;48.130;-2.040;2023-10-31T07:36:18;1.08;;;0.50;;
61397;SDS011;47267;48.130;-2.040;2023-10-31T07:38:43;1.60;;;0.52;;
61397;SDS011;47267;48.130;-2.040;2023-10-31T07:41:09;1.23;;;0.52;;
61397;SDS011;47267;48.130;-2.040;2023-10-31T07:43:35;1.90;;;0.90;;
61397;SDS011;47267;48.130;-2.040;2023-10-31T07:46:00;1.52;;;0.60;;
61397;SDS011;47267;48.130;-2.040;2023-10-31T07:48:26;1.95;;;0.60;;
61397;SDS011;47267;48.130;-2.040;2023-10-31T07:50:52;2.03;;;0.63;;
61397;SDS011;47267;48.130;-2.040;2023-10-31T07:53:17;0.95;;;0.43;;
61397;SDS011;47267;48.130;-2.040;2023-10-31T07:55:43;2.03;;;0.70;;
61397;SDS011;47267;48.130;-2.040;2023-10-31T07:58:09;1.73;;;0.60;;
61397;SDS011;47267;48.130;-2.040;2023-10-31T08:00:35;1.70;;;0.60;;
61397;SDS011;47267;48.130;-2.040;2023-10-31T08:03:01;1.15;;;0.50;;
61397;SDS011;47267;48.130;-2.040;2023-10-31T08:05:27;1.35;;;0.52;;
61397;SDS011;47267;48.130;-2.040;2023-10-31T08:07:53;0.75;;;0.47;;
61397;SDS011;47267;48.130;-2.040;2023-10-31T08:10:18;1.60;;;0.60;;
61397;SDS011;47267;48.130;-2.040;2023-10-31T08:12:44;4.85;;;0.60;;
61397;SDS011;47267;48.130;-2.040;2023-10-31T08:15:10;2.15;;;0.60;;
61397;SDS011;47267;48.130;-2.040;2023-10-31T08:17:35;1.98;;;0.68;;
61397;SDS011;47267;48.130;-2.040;2023-10-31T08:20:02;1.70;;;0.60;;
61397;SDS011;47267;48.130;-2.040;2023-10-31T08:22:31;2.17;;;0.73;;
61397;SDS011;47267;48.130;-2.040;2023-10-31T08:24:57;1.92;;;0.47;;
61397;SDS011;47267;48.130;-2.040;2023-10-31T08:27:22;2.50;;;0.90;;
61397;SDS011;47267;48.130;-2.040;2023-10-31T08:29:48;1.92;;;0.75;;
61397;SDS011;47267;48.130;-2.040;2023-10-31T08:32:13;2.40;;;0.68;;
61397;SDS011;47267;48.130;-2.040;2023-10-31T08:34:39;1.48;;;0.43;;
61397;SDS011;47267;48.130;-2.040;2023-10-31T08:37:05;2.95;;;0.60;;
61397;SDS011;47267;48.130;-2.040;2023-10-31T08:39:30;3.28;;;0.70;;
61397;SDS011;47267;48.130;-2.040;2023-10-31T08:41:57;2.20;;;0.52;;
61397;SDS011;47267;48.130;-2.040;2023-10-31T08:44:23;2.63;;;0.70;;
61397;SDS011;47267;48.130;-2.040;2023-10-31T08:46:49;4.82;;;0.70;;
61397;SDS011;47267;48.130;-2.040;2023-10-31T08:49:15;2.03;;;0.70;;
61397;SDS011;47267;48.130;-2.040;2023-10-31T08:51:42;1.83;;;0.70;;
61397;SDS011;47267;48.130;-2.040;2023-10-31T08:54:08;2.88;;;0.90;;
61397;SDS011;47267;48.130;-2.040;2023-10-31T08:56:36;1.52;;;0.52;;
61397;SDS011;47267;48.130;-2.040;2023-10-31T08:59:02;2.47;;;0.80;;
61397;SDS011;47267;48.130;-2.040;2023-10-31T09:01:28;1.88;;;0.70;;
61397;SDS011;47267;48.130;-2.040;2023-10-31T09:03:54;3.47;;;0.80;;
61397;SDS011;47267;48.130;-2.040;2023-10-31T09:06:20;2.58;;;0.73;;
61397;SDS011;47267;48.130;-2.040;2023-10-31T09:08:45;3.33;;;0.65;;
61397;SDS011;47267;48.130;-2.040;2023-10-31T09:11:11;3.55;;;0.60;;
61397;SDS011;47267;48.130;-2.040;2023-10-31T09:13:37;2.55;;;0.70;;
61397;SDS011;47267;48.130;-2.040;2023-10-31T09:16:02;3.53;;;0.70;;
61397;SDS011;47267;48.130;-2.040;2023-10-31T09:18:36;1.85;;;0.55;;
61397;SDS011;47267;48.130;-2.040;2023-10-31T09:21:02;2.17;;;0.80;;
61397;SDS011;47267;48.130;-2.040;2023-10-31T09:23:28;1.98;;;0.55;;
61397;SDS011;47267;48.130;-2.040;2023-10-31T09:25:54;2.00;;;0.60;;
61397;SDS011;47267;48.130;-2.040;2023-10-31T09:28:28;3.17;;;0.80;;
61397;SDS011;47267;48.130;-2.040;2023-10-31T09:30:54;4.78;;;0.73;;
61397;SDS011;47267;48.130;-2.040;2023-10-31T09:33:20;1.73;;;0.63;;
61397;SDS011;47267;48.130;-2.040;2023-10-31T09:35:46;3.63;;;0.88;;
61397;SDS011;47267;48.130;-2.040;2023-10-31T09:38:12;2.60;;;1.25;;
61397;SDS011;47267;48.130;-2.040;2023-10-31T09:40:40;6.28;;;1.00;;
61397;SDS011;47267;48.130;-2.040;2023-10-31T09:43:09;4.97;;;0.95;;
61397;SDS011;47267;48.130;-2.040;2023-10-31T09:45:37;5.15;;;1.23;;
61397;SDS011;47267;48.130;-2.040;2023-10-31T09:48:03;5.35;;;1.00;;
61397;SDS011;47267;48.130;-2.040;2023-10-31T09:50:29;3.80;;;1.02;;
61397;SDS011;47267;48.130;-2.040;2023-10-31T09:52:56;2.63;;;0.60;;
61397;SDS011;47267;48.130;-2.040;2023-10-31T09:55:23;2.53;;;0.73;;
61397;SDS011;47267;48.130;-2.040;2023-10-31T09:57:49;3.92;;;0.82;;
61397;SDS011;47267;48.130;-2.040;2023-10-31T10:00:15;4.60;;;1.02;;
61397;SDS011;47267;48.130;-2.040;2023-10-31T10:02:41;3.83;;;1.17;;
61397;SDS011;47267;48.130;-2.040;2023-10-31T10:05:08;5.50;;;0.90;;
61397;SDS011;47267;48.130;-2.040;2023-10-31T10:07:34;4.43;;;1.08;;
61397;SDS011;47267;48.130;-2.040;2023-10-31T10:10:01;2.97;;;1.05;;
61397;SDS011;47267;48.130;-2.040;2023-10-31T10:12:27;3.97;;;0.95;;
61397;SDS011;47267;48.130;-2.040;2023-10-31T10:14:54;2.97;;;0.82;;
61397;SDS011;47267;48.130;-2.040;2023-10-31T10:17:22;4.93;;;1.13;;
61397;SDS011;47267;48.130;-2.040;2023-10-31T10:20:04;3.10;;;0.70;;
61397;SDS011;47267;48.130;-2.040;2023-10-31T10:22:31;4.47;;;1.20;;
61397;SDS011;47267;48.130;-2.040;2023-10-31T10:24:56;4.53;;;0.80;;
61397;SDS011;47267;48.130;-2.040;2023-10-31T10:27:23;3.53;;;1.00;;
61397;SDS011;47267;48.130;-2.040;2023-10-31T10:29:49;3.80;;;1.00;;
61397;SDS011;47267;48.130;-2.040;2023-10-31T10:32:19;4.47;;;0.90;;
61397;SDS011;47267;48.130;-2.040;2023-10-31T10:34:45;4.50;;;1.05;;
61397;SDS011;47267;48.130;-2.040;2023-10-31T10:37:11;2.55;;;0.80;;
61397;SDS011;47267;48.130;-2.040;2023-10-31T10:39:37;3.50;;;0.93;;
61397;SDS011;47267;48.130;-2.040;2023-10-31T10:42:08;4.75;;;1.30;;
61397;SDS011;47267;48.130;-2.040;2023-10-31T10:44:38;8.93;;;1.00;;
61397;SDS011;47267;48.130;-2.040;2023-10-31T10:47:08;2.40;;;0.73;;
61397;SDS011;47267;48.130;-2.040;2023-10-31T10:49:36;4.57;;;0.90;;
61397;SDS011;47267;48.130;-2.040;2023-10-31T10:52:20;3.58;;;1.23;;
61397;SDS011;47267;48.130;-2.040;2023-10-31T10:54:53;5.20;;;1.15;;
61397;SDS011;47267;48.130;-2.040;2023-10-31T10:59:58;3.92;;;0.90;;
61397;SDS011;47267;48.130;-2.040;2023-10-31T11:02:28;4.47;;;1.40;;
61397;SDS011;47267;48.130;-2.040;2023-10-31T11:04:55;15.15;;;2.50;;
61397;SDS011;47267;48.130;-2.040;2023-10-31T11:07:24;13.45;;;4.05;;
61397;SDS011;47267;48.130;-2.040;2023-10-31T11:09:50;23.52;;;5.40;;
61397;SDS011;47267;48.130;-2.040;2023-10-31T11:12:16;27.15;;;7.25;;
61397;SDS011;47267;48.130;-2.040;2023-10-31T11:14:46;37.72;;;8.80;;
61397;SDS011;47267;48.130;-2.040;2023-10-31T11:17:23;36.90;;;8.45;;
61397;SDS011;47267;48.130;-2.040;2023-10-31T11:19:52;41.92;;;9.48;;
61397;SDS011;47267;48.130;-2.040;2023-10-31T11:22:19;30.70;;;8.63;;
61397;SDS011;47267;48.130;-2.040;2023-10-31T11:24:45;33.63;;;9.40;;
61397;SDS011;47267;48.130;-2.040;2023-10-31T11:27:14;34.80;;;8.93;;
61397;SDS011;47267;48.130;-2.040;2023-10-31T11:29:39;30.25;;;8.40;;
61397;SDS011;47267;48.130;-2.040;2023-10-31T11:32:11;29.90;;;8.55;;
61397;SDS011;47267;48.130;-2.040;2023-10-31T11:34:37;34.35;;;10.02;;
61397;SDS011;47267;48.130;-2.040;2023-10-31T11:42:43;27.42;;;7.05;;
61397;SDS011;47267;48.130;-2.040;2023-10-31T11:45:11;21.80;;;6.88;;
61397;SDS011;47267;48.130;-2.040;2023-10-31T11:47:47;23.00;;;5.85;;
61397;SDS011;47267;48.130;-2.040;2023-10-31T11:50:14;26.85;;;7.55;;
61397;SDS011;47267;48.130;-2.040;2023-10-31T11:52:40;25.50;;;6.43;;
61397;SDS011;47267;48.130;-2.040;2023-10-31T11:55:11;27.33;;;7.45;;
61397;SDS011;47267;48.130;-2.040;2023-10-31T11:57:40;27.20;;;6.78;;
61397;SDS011;47267;48.130;-2.040;2023-10-31T12:00:05;27.92;;;7.63;;
61397;SDS011;47267;48.130;-2.040;2023-10-31T12:02:35;23.45;;;6.78;;
61397;SDS011;47267;48.130;-2.040;2023-10-31T12:05:08;30.88;;;6.78;;
61397;SDS011;47267;48.130;-2.040;2023-10-31T12:07:43;20.42;;;6.82;;
61397;SDS011;47267;48.130;-2.040;2023-10-31T12:10:10;24.30;;;7.13;;
61397;SDS011;47267;48.130;-2.040;2023-10-31T12:12:36;27.25;;;6.65;;
61397;SDS011;47267;48.130;-2.040;2023-10-31T12:15:07;23.60;;;7.78;;
61397;SDS011;47267;48.130;-2.040;2023-10-31T12:17:34;23.67;;;7.50;;
61397;SDS011;47267;48.130;-2.040;2023-10-31T12:20:07;23.48;;;7.13;;
61397;SDS011;47267;48.130;-2.040;2023-10-31T12:22:33;24.83;;;7.00;;
61397;SDS011;47267;48.130;-2.040;2023-10-31T12:25:03;24.70;;;6.72;;
61397;SDS011;47267;48.130;-2.040;2023-10-31T12:28:04;21.10;;;6.80;;
61397;SDS011;47267;48.130;-2.040;2023-10-31T12:30:22;18.98;;;6.95;;
61397;SDS011;47267;48.130;-2.040;2023-10-31T12:32:57;21.58;;;6.38;;
61397;SDS011;47267;48.130;-2.040;2023-10-31T12:35:23;23.17;;;6.75;;
61397;SDS011;47267;48.130;-2.040;2023-10-31T12:37:51;18.27;;;5.78;;
61397;SDS011;47267;48.130;-2.040;2023-10-31T12:40:18;19.70;;;5.72;;
61397;SDS011;47267;48.130;-2.040;2023-10-31T12:42:45;21.88;;;6.15;;
61397;SDS011;47267;48.130;-2.040;2023-10-31T12:45:12;24.55;;;5.65;;
61397;SDS011;47267;48.130;-2.040;2023-10-31T12:47:39;21.55;;;5.72;;
61397;SDS011;47267;48.130;-2.040;2023-10-31T12:55:16;20.08;;;5.50;;
61397;SDS011;47267;48.130;-2.040;2023-10-31T12:57:45;14.50;;;4.68;;
61397;SDS011;47267;48.130;-2.040;2023-10-31T13:00:11;14.98;;;4.97;;
61397;SDS011;47267;48.130;-2.040;2023-10-31T13:02:41;16.02;;;5.20;;
61397;SDS011;47267;48.130;-2.040;2023-10-31T13:05:14;18.75;;;5.28;;
61397;SDS011;47267;48.130;-2.040;2023-10-31T13:07:49;14.60;;;4.47;;
61397;SDS011;47267;48.130;-2.040;2023-10-31T13:10:16;14.77;;;4.28;;
61397;SDS011;47267;48.130;-2.040;2023-10-31T13:12:44;18.48;;;4.72;;
61397;SDS011;47267;48.130;-2.040;2023-10-31T13:15:15;16.80;;;4.68;;
61397;SDS011;47267;48.130;-2.040;2023-10-31T13:17:41;15.55;;;4.80;;
61397;SDS011;47267;48.130;-2.040;2023-10-31T13:20:11;14.18;;;4.70;;
61397;SDS011;47267;48.130;-2.040;2023-10-31T13:22:37;16.55;;;4.78;;
61397;SDS011;47267;48.130;-2.040;2023-10-31T13:25:04;16.63;;;5.25;;
61397;SDS011;47267;48.130;-2.040;2023-10-31T13:27:33;18.30;;;4.43;;
61397;SDS011;47267;48.130;-2.040;2023-10-31T13:30:04;14.32;;;4.90;;
61397;SDS011;47267;48.130;-2.040;2023-10-31T13:32:31;11.73;;;4.13;;
61397;SDS011;47267;48.130;-2.040;2023-10-31T13:34:56;15.13;;;4.15;;
61397;SDS011;47267;48.130;-2.040;2023-10-31T13:37:22;16.52;;;4.50;;
61397;SDS011;47267;48.130;-2.040;2023-10-31T13:39:48;15.25;;;4.30;;
61397;SDS011;47267;48.130;-2.040;2023-10-31T13:42:14;11.60;;;3.92;;
61397;SDS011;47267;48.130;-2.040;2023-10-31T13:44:43;14.57;;;4.38;;
61397;SDS011;47267;48.130;-2.040;2023-10-31T13:47:09;14.73;;;3.60;;
61397;SDS011;47267;48.130;-2.040;2023-10-31T13:49:35;14.13;;;3.65;;
61397;SDS011;47267;48.130;-2.040;2023-10-31T13:52:05;14.40;;;3.58;;
61397;SDS011;47267;48.130;-2.040;2023-10-31T13:54:34;14.18;;;4.10;;
61397;SDS011;47267;48.130;-2.040;2023-10-31T13:57:00;14.68;;;3.85;;
61397;SDS011;47267;48.130;-2.040;2023-10-31T13:59:26;12.07;;;3.72;;
61397;SDS011;47267;48.130;-2.040;2023-10-31T14:01:52;12.65;;;3.55;;
61397;SDS011;47267;48.130;-2.040;2023-10-31T14:04:18;8.05;;;3.15;;
61397;SDS011;47267;48.130;-2.040;2023-10-31T14:06:59;11.43;;;3.10;;
61397;SDS011;47267;48.130;-2.040;2023-10-31T14:09:25;12.70;;;3.60;;
61397;SDS011;47267;48.130;-2.040;2023-10-31T14:11:51;11.55;;;3.28;;
61397;SDS011;47267;48.130;-2.040;2023-10-31T14:14:16;9.90;;;3.33;;
61397;SDS011;47267;48.130;-2.040;2023-10-31T14:16:43;14.63;;;3.67;;
61397;SDS011;47267;48.130;-2.040;2023-10-31T14:19:09;12.20;;;3.17;;
61397;SDS011;47267;48.130;-2.040;2023-10-31T14:21:36;10.68;;;3.17;;
61397;SDS011;47267;48.130;-2.040;2023-10-31T14:24:02;14.63;;;3.05;;
61397;SDS011;47267;48.130;-2.040;2023-10-31T14:26:28;11.07;;;3.42;;
61397;SDS011;47267;48.130;-2.040;2023-10-31T14:28:55;10.55;;;3.05;;
61397;SDS011;47267;48.130;-2.040;2023-10-31T14:31:21;7.38;;;2.33;;
61397;SDS011;47267;48.130;-2.040;2023-10-31T14:33:47;9.85;;;2.53;;
61397;SDS011;47267;48.130;-2.040;2023-10-31T14:36:13;8.77;;;2.50;;
61397;SDS011;47267;48.130;-2.040;2023-10-31T14:38:40;8.73;;;2.45;;
61397;SDS011;47267;48.130;-2.040;2023-10-31T14:41:06;8.98;;;2.72;;